sensor_id;sensor_type;location;lat;lon;timestamp;pressure;altitude;pressure_sealevel;temperature;humidity
40730;BME280;26418;50.070;8.436;2023-07-13T00:12:38;99898.44;;;19.68;48.30
40730;BME280;26418;50.070;8.436;2023-07-13T00:15:07;99898.75;;;19.67;47.84
40730;BME280;26418;50.070;8.436;2023-07-13T00:17:35;99905.00;;;19.63;48.09
40730;BME280;26418;50.070;8.436;2023-07-13T00:20:00;99908.81;;;19.59;47.75
40730;BME280;26418;50.070;8.436;2023-07-13T00:22:29;99901.31;;;19.56;47.58
40730;BME280;26418;50.070;8.436;2023-07-13T00:24:54;99918.22;;;19.58;47.90
40730;BME280;26418;50.070;8.436;2023-07-13T00:27:26;99925.34;;;19.62;47.56
40730;BME280;26418;50.070;8.436;2023-07-13T00:29:52;99924.69;;;19.69;47.44
40730;BME280;26418;50.070;8.436;2023-07-13T00:32:18;99926.28;;;19.70;47.53
40730;BME280;26418;50.070;8.436;2023-07-13T00:34:43;99920.38;;;19.68;47.50
40730;BME280;26418;50.070;8.436;2023-07-13T00:37:09;99921.94;;;19.69;48.02
40730;BME280;26418;50.070;8.436;2023-07-13T00:39:53;99934.50;;;19.70;47.81
40730;BME280;26418;50.070;8.436;2023-07-13T00:42:19;99932.84;;;19.66;48.05
40730;BME280;26418;50.070;8.436;2023-07-13T00:47:45;99932.06;;;19.65;47.77
40730;BME280;26418;50.070;8.436;2023-07-13T00:50:14;99937.63;;;19.69;47.92
40730;BME280;26418;50.070;8.436;2023-07-13T00:52:44;99939.22;;;19.70;47.83
40730;BME280;26418;50.070;8.436;2023-07-13T00:55:10;99940.28;;;19.65;48.23
40730;BME280;26418;50.070;8.436;2023-07-13T00:57:46;99941.06;;;19.66;48.40
40730;BME280;26418;50.070;8.436;2023-07-13T01:00:22;99941.44;;;19.64;47.85
40730;BME280;26418;50.070;8.436;2023-07-13T01:02:49;99943.81;;;19.66;48.06
40730;BME280;26418;50.070;8.436;2023-07-13T01:05:17;99942.31;;;19.68;47.95
40730;BME280;26418;50.070;8.436;2023-07-13T01:07:44;99935.31;;;19.71;47.96
40730;BME280;26418;50.070;8.436;2023-07-13T01:10:16;99931.34;;;19.68;48.17
40730;BME280;26418;50.070;8.436;2023-07-13T01:12:58;99926.63;;;19.69;48.29
40730;BME280;26418;50.070;8.436;2023-07-13T01:15:45;99925.34;;;19.62;48.16
40730;BME280;26418;50.070;8.436;2023-07-13T01:18:23;99928.81;;;19.59;48.09
40730;BME280;26418;50.070;8.436;2023-07-13T01:21:04;99920.00;;;19.50;48.62
40730;BME280;26418;50.070;8.436;2023-07-13T01:23:31;99927.38;;;19.46;48.71
40730;BME280;26418;50.070;8.436;2023-07-13T01:25:58;99929.59;;;19.40;49.04
40730;BME280;26418;50.070;8.436;2023-07-13T01:28:27;99922.59;;;19.43;48.62
40730;BME280;26418;50.070;8.436;2023-07-13T01:30:55;99935.47;;;19.39;48.75
40730;BME280;26418;50.070;8.436;2023-07-13T01:33:20;99909.81;;;19.31;48.90
40730;BME280;26418;50.070;8.436;2023-07-13T01:35:47;99922.38;;;19.32;48.85
40730;BME280;26418;50.070;8.436;2023-07-13T01:38:17;99928.50;;;19.25;48.83
40730;BME280;26418;50.070;8.436;2023-07-13T01:40:43;99924.47;;;19.19;49.19
40730;BME280;26418;50.070;8.436;2023-07-13T01:43:12;99917.75;;;19.16;49.36
40730;BME280;26418;50.070;8.436;2023-07-13T01:45:38;99925.53;;;19.14;49.46
40730;BME280;26418;50.070;8.436;2023-07-13T01:48:04;99905.75;;;19.05;49.48
40730;BME280;26418;50.070;8.436;2023-07-13T01:50:32;99917.88;;;19.04;49.92
40730;BME280;26418;50.070;8.436;2023-07-13T01:52:57;99929.56;;;19.01;49.93
40730;BME280;26418;50.070;8.436;2023-07-13T01:55:23;99928.22;;;18.95;50.32
40730;BME280;26418;50.070;8.436;2023-07-13T01:57:49;99932.13;;;18.94;49.87
40730;BME280;26418;50.070;8.436;2023-07-13T02:00:15;99924.06;;;18.85;50.42
40730;BME280;26418;50.070;8.436;2023-07-13T02:02:41;99930.78;;;18.88;50.26
40730;BME280;26418;50.070;8.436;2023-07-13T02:05:07;99928.78;;;18.84;50.26
40730;BME280;26418;50.070;8.436;2023-07-13T02:07:32;99931.84;;;18.83;50.63
40730;BME280;26418;50.070;8.436;2023-07-13T02:09:58;99930.16;;;18.78;50.50
40730;BME280;26418;50.070;8.436;2023-07-13T02:12:24;99935.94;;;18.73;50.51
40730;BME280;26418;50.070;8.436;2023-07-13T02:14:49;99935.50;;;18.71;50.74
40730;BME280;26418;50.070;8.436;2023-07-13T02:17:15;99935.84;;;18.69;50.61
40730;BME280;26418;50.070;8.436;2023-07-13T02:19:40;99924.72;;;18.62;50.64
40730;BME280;26418;50.070;8.436;2023-07-13T02:22:06;99929.94;;;18.67;50.20
40730;BME280;26418;50.070;8.436;2023-07-13T02:24:32;99933.56;;;18.72;50.06
40730;BME280;26418;50.070;8.436;2023-07-13T02:26:57;99932.75;;;18.71;49.77
40730;BME280;26418;50.070;8.436;2023-07-13T02:29:23;99925.44;;;18.59;49.76
40730;BME280;26418;50.070;8.436;2023-07-13T02:31:51;99928.88;;;18.56;49.64
40730;BME280;26418;50.070;8.436;2023-07-13T02:34:26;99952.22;;;18.66;49.70
40730;BME280;26418;50.070;8.436;2023-07-13T02:36:52;99939.56;;;18.61;49.53
40730;BME280;26418;50.070;8.436;2023-07-13T02:39:21;99952.81;;;18.59;49.63
40730;BME280;26418;50.070;8.436;2023-07-13T02:41:46;99944.78;;;18.50;50.13
40730;BME280;26418;50.070;8.436;2023-07-13T02:44:13;99946.91;;;18.41;50.54
40730;BME280;26418;50.070;8.436;2023-07-13T02:46:39;99944.78;;;18.34;50.45
40730;BME280;26418;50.070;8.436;2023-07-13T02:49:08;99939.56;;;18.29;50.56
40730;BME280;26418;50.070;8.436;2023-07-13T02:51:33;99935.06;;;18.21;50.50
40730;BME280;26418;50.070;8.436;2023-07-13T02:54:00;99955.47;;;18.23;50.75
40730;BME280;26418;50.070;8.436;2023-07-13T02:56:28;99955.78;;;18.22;50.82
40730;BME280;26418;50.070;8.436;2023-07-13T02:58:54;99950.84;;;18.12;51.12
40730;BME280;26418;50.070;8.436;2023-07-13T03:01:21;99954.38;;;18.12;51.35
40730;BME280;26418;50.070;8.436;2023-07-13T03:03:50;99948.91;;;18.12;51.46
40730;BME280;26418;50.070;8.436;2023-07-13T03:06:16;99955.59;;;18.15;51.41
40730;BME280;26418;50.070;8.436;2023-07-13T03:08:51;99953.91;;;18.10;51.24
40730;BME280;26418;50.070;8.436;2023-07-13T03:11:18;99962.22;;;18.14;51.38
40730;BME280;26418;50.070;8.436;2023-07-13T03:13:45;99957.81;;;18.09;51.44
40730;BME280;26418;50.070;8.436;2023-07-13T03:16:11;99952.94;;;18.02;51.49
40730;BME280;26418;50.070;8.436;2023-07-13T03:18:40;99976.19;;;18.09;51.75
40730;BME280;26418;50.070;8.436;2023-07-13T03:21:09;99974.13;;;18.05;51.89
40730;BME280;26418;50.070;8.436;2023-07-13T03:23:35;99964.34;;;18.04;51.97
40730;BME280;26418;50.070;8.436;2023-07-13T03:28:31;99980.09;;;17.95;52.02
40730;BME280;26418;50.070;8.436;2023-07-13T03:31:01;99985.91;;;17.94;52.42
40730;BME280;26418;50.070;8.436;2023-07-13T03:33:27;99979.28;;;17.95;52.22
40730;BME280;26418;50.070;8.436;2023-07-13T03:35:52;99995.25;;;17.92;52.26
40730;BME280;26418;50.070;8.436;2023-07-13T03:38:18;100002.31;;;17.94;52.43
40730;BME280;26418;50.070;8.436;2023-07-13T03:40:45;100002.22;;;17.90;52.56
40730;BME280;26418;50.070;8.436;2023-07-13T03:43:10;100008.94;;;17.92;52.59
40730;BME280;26418;50.070;8.436;2023-07-13T03:45:38;100010.53;;;17.94;52.54
40730;BME280;26418;50.070;8.436;2023-07-13T03:48:04;100017.94;;;17.93;52.81
40730;BME280;26418;50.070;8.436;2023-07-13T03:50:30;100011.56;;;17.89;53.06
40730;BME280;26418;50.070;8.436;2023-07-13T03:52:57;100009.53;;;17.86;53.17
40730;BME280;26418;50.070;8.436;2023-07-13T03:55:23;100012.59;;;17.84;53.04
40730;BME280;26418;50.070;8.436;2023-07-13T03:57:54;100008.53;;;17.78;53.18
40730;BME280;26418;50.070;8.436;2023-07-13T04:00:23;100014.25;;;17.73;53.23
40730;BME280;26418;50.070;8.436;2023-07-13T04:02:48;100000.81;;;17.68;53.22
40730;BME280;26418;50.070;8.436;2023-07-13T04:05:15;100005.25;;;17.72;53.42
40730;BME280;26418;50.070;8.436;2023-07-13T04:07:40;100013.44;;;17.72;53.74
40730;BME280;26418;50.070;8.436;2023-07-13T04:10:06;100017.00;;;17.73;53.97
40730;BME280;26418;50.070;8.436;2023-07-13T04:12:32;100028.72;;;17.73;53.97
40730;BME280;26418;50.070;8.436;2023-07-13T04:14:57;100024.84;;;17.74;54.05
40730;BME280;26418;50.070;8.436;2023-07-13T04:17:23;100022.78;;;17.71;54.11
40730;BME280;26418;50.070;8.436;2023-07-13T04:19:49;100024.75;;;17.71;53.83
40730;BME280;26418;50.070;8.436;2023-07-13T04:22:14;100018.91;;;17.72;53.75
40730;BME280;26418;50.070;8.436;2023-07-13T04:24:40;100020.50;;;17.73;53.54
40730;BME280;26418;50.070;8.436;2023-07-13T04:27:06;100023.34;;;17.77;53.61
40730;BME280;26418;50.070;8.436;2023-07-13T04:29:32;100024.84;;;17.74;53.27
40730;BME280;26418;50.070;8.436;2023-07-13T04:31:58;100028.81;;;17.77;53.36
40730;BME280;26418;50.070;8.436;2023-07-13T04:34:24;100029.03;;;17.84;53.87
40730;BME280;26418;50.070;8.436;2023-07-13T04:36:50;100027.97;;;17.89;55.17
40730;BME280;26418;50.070;8.436;2023-07-13T04:39:16;100026.16;;;17.93;54.59
40730;BME280;26418;50.070;8.436;2023-07-13T04:41:41;100022.97;;;18.03;55.70
40730;BME280;26418;50.070;8.436;2023-07-13T04:44:07;100016.44;;;18.08;54.19
40730;BME280;26418;50.070;8.436;2023-07-13T04:46:33;100004.69;;;18.07;53.31
40730;BME280;26418;50.070;8.436;2023-07-13T04:48:58;100009.84;;;18.25;52.50
40730;BME280;26418;50.070;8.436;2023-07-13T04:51:24;100012.69;;;18.29;52.08
40730;BME280;26418;50.070;8.436;2023-07-13T04:53:50;100014.28;;;18.30;51.21
40730;BME280;26418;50.070;8.436;2023-07-13T04:56:15;100012.31;;;18.30;51.00
40730;BME280;26418;50.070;8.436;2023-07-13T04:58:41;100012.22;;;18.27;50.58
40730;BME280;26418;50.070;8.436;2023-07-13T05:01:07;100024.53;;;18.33;50.44
40730;BME280;26418;50.070;8.436;2023-07-13T05:03:34;100008.81;;;18.30;50.69
40730;BME280;26418;50.070;8.436;2023-07-13T05:06:05;100016.31;;;18.33;50.29
40730;BME280;26418;50.070;8.436;2023-07-13T05:08:31;100012.69;;;18.29;50.43
40730;BME280;26418;50.070;8.436;2023-07-13T05:10:59;100026.56;;;18.36;50.46
40730;BME280;26418;50.070;8.436;2023-07-13T05:13:25;100022.22;;;18.35;50.68
40730;BME280;26418;50.070;8.436;2023-07-13T05:16:02;100025.97;;;18.43;51.95
40730;BME280;26418;50.070;8.436;2023-07-13T05:18:29;100031.56;;;18.62;51.57
40730;BME280;26418;50.070;8.436;2023-07-13T05:21:00;100020.59;;;18.78;51.99
40730;BME280;26418;50.070;8.436;2023-07-13T05:23:26;100034.34;;;18.94;51.27
40730;BME280;26418;50.070;8.436;2023-07-13T05:25:52;100031.41;;;19.03;50.82
40730;BME280;26418;50.070;8.436;2023-07-13T05:28:18;100031.97;;;18.93;51.04
40730;BME280;26418;50.070;8.436;2023-07-13T05:30:47;100040.19;;;18.93;51.46
40730;BME280;26418;50.070;8.436;2023-07-13T05:33:13;100046.31;;;18.90;51.95
40730;BME280;26418;50.070;8.436;2023-07-13T05:35:38;100042.91;;;18.93;52.04
40730;BME280;26418;50.070;8.436;2023-07-13T05:38:04;100045.97;;;18.91;52.05
40730;BME280;26418;50.070;8.436;2023-07-13T05:40:30;100056.63;;;18.93;52.31
40730;BME280;26418;50.070;8.436;2023-07-13T05:42:55;100048.69;;;18.91;52.52
40730;BME280;26418;50.070;8.436;2023-07-13T05:45:21;100050.06;;;18.97;51.72
40730;BME280;26418;50.070;8.436;2023-07-13T05:47:46;100052.47;;;18.99;51.70
40730;BME280;26418;50.070;8.436;2023-07-13T05:50:12;100053.16;;;18.96;52.14
40730;BME280;26418;50.070;8.436;2023-07-13T05:52:37;100053.69;;;19.01;51.76
40730;BME280;26418;50.070;8.436;2023-07-13T05:55:03;100058.09;;;19.06;51.88
40730;BME280;26418;50.070;8.436;2023-07-13T05:57:30;100060.47;;;19.08;51.59
40730;BME280;26418;50.070;8.436;2023-07-13T05:59:56;100055.97;;;19.15;51.94
40730;BME280;26418;50.070;8.436;2023-07-13T06:02:22;100059.41;;;19.28;51.89
40730;BME280;26418;50.070;8.436;2023-07-13T06:04:47;100057.88;;;19.47;51.73
40730;BME280;26418;50.070;8.436;2023-07-13T06:07:13;100048.38;;;19.60;51.29
40730;BME280;26418;50.070;8.436;2023-07-13T06:09:38;100059.31;;;19.76;48.11
40730;BME280;26418;50.070;8.436;2023-07-13T06:12:04;100051.84;;;19.77;47.68
40730;BME280;26418;50.070;8.436;2023-07-13T06:14:30;100054.31;;;19.82;47.69
40730;BME280;26418;50.070;8.436;2023-07-13T06:16:56;100038.66;;;19.83;47.60
40730;BME280;26418;50.070;8.436;2023-07-13T06:19:21;100047.50;;;19.92;47.73
40730;BME280;26418;50.070;8.436;2023-07-13T06:21:47;100049.66;;;20.02;48.02
40730;BME280;26418;50.070;8.436;2023-07-13T06:24:12;100053.34;;;20.10;46.07
40730;BME280;26418;50.070;8.436;2023-07-13T06:26:38;100050.38;;;20.19;47.00
40730;BME280;26418;50.070;8.436;2023-07-13T06:29:03;100057.38;;;20.36;47.45
40730;BME280;26418;50.070;8.436;2023-07-13T06:31:29;100061.53;;;20.49;45.89
40730;BME280;26418;50.070;8.436;2023-07-13T06:33:55;100055.69;;;20.51;45.58
40730;BME280;26418;50.070;8.436;2023-07-13T06:36:20;100056.25;;;20.60;45.86
40730;BME280;26418;50.070;8.436;2023-07-13T06:38:45;100056.78;;;20.69;45.47
40730;BME280;26418;50.070;8.436;2023-07-13T06:41:11;100055.72;;;20.74;45.34
40730;BME280;26418;50.070;8.436;2023-07-13T06:43:37;100070.63;;;20.73;44.39
40730;BME280;26418;50.070;8.436;2023-07-13T06:46:03;100069.44;;;20.74;44.96
40730;BME280;26418;50.070;8.436;2023-07-13T06:48:28;100071.09;;;20.79;44.78
40730;BME280;26418;50.070;8.436;2023-07-13T06:50:54;100066.84;;;20.81;45.01
40730;BME280;26418;50.070;8.436;2023-07-13T06:53:20;100073.56;;;20.84;44.45
40730;BME280;26418;50.070;8.436;2023-07-13T06:55:48;100073.91;;;20.82;44.30
40730;BME280;26418;50.070;8.436;2023-07-13T06:58:15;100070.69;;;20.77;44.31
40730;BME280;26418;50.070;8.436;2023-07-13T07:00:41;100072.69;;;20.80;44.99
40730;BME280;26418;50.070;8.436;2023-07-13T07:03:07;100071.31;;;20.89;44.48
40730;BME280;26418;50.070;8.436;2023-07-13T07:05:33;100079.72;;;21.00;44.18
40730;BME280;26418;50.070;8.436;2023-07-13T07:07:59;100077.53;;;21.10;44.76
40730;BME280;26418;50.070;8.436;2023-07-13T07:10:25;100078.81;;;21.16;44.30
40730;BME280;26418;50.070;8.436;2023-07-13T07:12:51;100083.34;;;21.31;43.61
40730;BME280;26418;50.070;8.436;2023-07-13T07:15:18;100085.88;;;21.40;43.60
40730;BME280;26418;50.070;8.436;2023-07-13T07:17:44;100083.03;;;21.36;43.00
40730;BME280;26418;50.070;8.436;2023-07-13T07:20:10;100076.69;;;21.32;43.58
40730;BME280;26418;50.070;8.436;2023-07-13T07:22:36;100081.09;;;21.37;43.64
40730;BME280;26418;50.070;8.436;2023-07-13T07:25:01;100094.63;;;21.49;43.47
40730;BME280;26418;50.070;8.436;2023-07-13T07:27:27;100084.38;;;21.46;42.50
40730;BME280;26418;50.070;8.436;2023-07-13T07:29:53;100073.66;;;21.41;42.36
40730;BME280;26418;50.070;8.436;2023-07-13T07:32:19;100085.13;;;21.70;43.84
40730;BME280;26418;50.070;8.436;2023-07-13T07:34:45;100081.88;;;21.91;42.13
40730;BME280;26418;50.070;8.436;2023-07-13T07:37:13;100090.81;;;22.15;41.95
40730;BME280;26418;50.070;8.436;2023-07-13T07:39:38;100090.63;;;22.31;41.73
40730;BME280;26418;50.070;8.436;2023-07-13T07:42:05;100085.69;;;22.48;41.68
40730;BME280;26418;50.070;8.436;2023-07-13T07:44:31;100094.31;;;22.46;41.09
40730;BME280;26418;50.070;8.436;2023-07-13T07:46:57;100090.50;;;22.20;41.01
40730;BME280;26418;50.070;8.436;2023-07-13T07:49:22;100088.97;;;22.26;41.69
40730;BME280;26418;50.070;8.436;2023-07-13T07:51:48;100087.66;;;22.47;41.16
40730;BME280;26418;50.070;8.436;2023-07-13T07:54:13;100087.41;;;22.59;40.69
40730;BME280;26418;50.070;8.436;2023-07-13T07:56:40;100089.28;;;22.52;40.94
40730;BME280;26418;50.070;8.436;2023-07-13T07:59:05;100087.63;;;22.43;40.89
40730;BME280;26418;50.070;8.436;2023-07-13T08:01:31;100091.44;;;22.35;40.51
40730;BME280;26418;50.070;8.436;2023-07-13T08:03:57;100082.34;;;22.31;40.54
40730;BME280;26418;50.070;8.436;2023-07-13T08:06:23;100083.72;;;22.48;41.17
40730;BME280;26418;50.070;8.436;2023-07-13T08:08:48;100089.38;;;22.63;39.83
40730;BME280;26418;50.070;8.436;2023-07-13T08:11:14;100090.38;;;22.85;39.74
40730;BME280;26418;50.070;8.436;2023-07-13T08:13:40;100082.16;;;22.92;39.01
40730;BME280;26418;50.070;8.436;2023-07-13T08:16:06;100082.84;;;23.19;38.87
40730;BME280;26418;50.070;8.436;2023-07-13T08:18:32;100086.63;;;23.56;37.50
40730;BME280;26418;50.070;8.436;2023-07-13T08:20:57;100086.25;;;23.65;36.51
40730;BME280;26418;50.070;8.436;2023-07-13T08:23:24;100081.16;;;23.67;36.83
40730;BME280;26418;50.070;8.436;2023-07-13T08:25:51;100079.63;;;23.80;36.67
40730;BME280;26418;50.070;8.436;2023-07-13T08:28:17;100090.41;;;24.00;36.31
40730;BME280;26418;50.070;8.436;2023-07-13T08:30:43;100073.50;;;24.12;35.45
40730;BME280;26418;50.070;8.436;2023-07-13T08:33:08;100086.16;;;24.21;35.99
40730;BME280;26418;50.070;8.436;2023-07-13T08:35:34;100082.69;;;24.49;35.26
40730;BME280;26418;50.070;8.436;2023-07-13T08:37:59;100073.66;;;24.77;33.82
40730;BME280;26418;50.070;8.436;2023-07-13T08:40:26;100083.94;;;25.06;33.72
40730;BME280;26418;50.070;8.436;2023-07-13T08:42:58;100078.41;;;25.35;33.68
40730;BME280;26418;50.070;8.436;2023-07-13T08:48:09;100077.59;;;25.34;32.62
40730;BME280;26418;50.070;8.436;2023-07-13T08:53:33;100082.38;;;25.01;33.04
40730;BME280;26418;50.070;8.436;2023-07-13T08:56:00;100072.09;;;25.09;32.86
40730;BME280;26418;50.070;8.436;2023-07-13T08:58:27;100074.44;;;25.32;32.97
40730;BME280;26418;50.070;8.436;2023-07-13T09:04:16;100078.38;;;25.56;32.15
40730;BME280;26418;50.070;8.436;2023-07-13T09:07:00;100081.97;;;25.39;32.76
40730;BME280;26418;50.070;8.436;2023-07-13T09:15:04;100084.63;;;25.82;32.33
40730;BME280;26418;50.070;8.436;2023-07-13T09:17:44;100073.13;;;25.87;31.46
40730;BME280;26418;50.070;8.436;2023-07-13T09:22:52;100087.16;;;26.40;30.33
40730;BME280;26418;50.070;8.436;2023-07-13T09:25:29;100076.84;;;26.44;30.43
40730;BME280;26418;50.070;8.436;2023-07-13T09:27:58;100070.00;;;26.63;30.58
40730;BME280;26418;50.070;8.436;2023-07-13T09:30:45;100080.09;;;26.92;29.59
40730;BME280;26418;50.070;8.436;2023-07-13T09:33:12;100065.66;;;27.15;29.22
40730;BME280;26418;50.070;8.436;2023-07-13T09:35:37;100070.81;;;27.55;29.20
40730;BME280;26418;50.070;8.436;2023-07-13T09:38:24;100073.88;;;27.64;29.10
40730;BME280;26418;50.070;8.436;2023-07-13T09:44:13;100074.84;;;27.05;29.43
40730;BME280;26418;50.070;8.436;2023-07-13T09:46:51;100079.44;;;26.70;30.15
40730;BME280;26418;50.070;8.436;2023-07-13T09:49:17;100070.25;;;26.83;30.94
40730;BME280;26418;50.070;8.436;2023-07-13T09:51:43;100076.38;;;27.13;29.87
40730;BME280;26418;50.070;8.436;2023-07-13T09:54:24;100070.38;;;27.60;29.72
40730;BME280;26418;50.070;8.436;2023-07-13T09:56:55;100057.13;;;27.71;28.65
40730;BME280;26418;50.070;8.436;2023-07-13T09:59:22;100068.56;;;27.77;29.68
40730;BME280;26418;50.070;8.436;2023-07-13T10:01:49;100070.25;;;27.71;29.01
40730;BME280;26418;50.070;8.436;2023-07-13T10:04:19;100071.06;;;27.68;28.58
40730;BME280;26418;50.070;8.436;2023-07-13T10:06:46;100068.41;;;27.91;28.84
40730;BME280;26418;50.070;8.436;2023-07-13T10:09:16;100079.66;;;27.81;28.99
40730;BME280;26418;50.070;8.436;2023-07-13T10:11:42;100066.53;;;27.46;29.28
40730;BME280;26418;50.070;8.436;2023-07-13T10:14:20;100063.91;;;27.28;29.72
40730;BME280;26418;50.070;8.436;2023-07-13T10:16:50;100062.78;;;27.64;28.48
40730;BME280;26418;50.070;8.436;2023-07-13T10:19:27;100064.31;;;28.03;28.59
40730;BME280;26418;50.070;8.436;2023-07-13T10:24:30;100054.28;;;27.79;28.59
40730;BME280;26418;50.070;8.436;2023-07-13T10:27:16;100063.31;;;27.52;28.52
40730;BME280;26418;50.070;8.436;2023-07-13T10:30:06;100060.50;;;27.55;29.51
40730;BME280;26418;50.070;8.436;2023-07-13T10:32:34;100050.91;;;27.95;29.31
40730;BME280;26418;50.070;8.436;2023-07-13T10:35:01;100053.97;;;28.59;28.45
40730;BME280;26418;50.070;8.436;2023-07-13T10:40:14;100061.25;;;29.04;27.18
40730;BME280;26418;50.070;8.436;2023-07-13T10:42:44;100053.84;;;29.41;25.96
40730;BME280;26418;50.070;8.436;2023-07-13T10:45:17;100059.44;;;29.61;25.61
40730;BME280;26418;50.070;8.436;2023-07-13T10:47:44;100065.91;;;29.34;26.10
40730;BME280;26418;50.070;8.436;2023-07-13T10:50:25;100044.97;;;28.78;26.27
40730;BME280;26418;50.070;8.436;2023-07-13T10:53:00;100062.19;;;28.42;25.41
40730;BME280;26418;50.070;8.436;2023-07-13T10:56:00;100051.88;;;28.43;26.09
40730;BME280;26418;50.070;8.436;2023-07-13T10:58:36;100060.28;;;28.90;26.61
40730;BME280;26418;50.070;8.436;2023-07-13T11:01:17;100051.81;;;29.21;26.04
40730;BME280;26418;50.070;8.436;2023-07-13T11:06:15;100053.50;;;29.15;25.98
40730;BME280;26418;50.070;8.436;2023-07-13T11:24:58;100048.34;;;28.66;26.37
40730;BME280;26418;50.070;8.436;2023-07-13T11:27:40;100049.84;;;28.43;26.18
40730;BME280;26418;50.070;8.436;2023-07-13T11:35:45;100045.25;;;28.33;26.72
40730;BME280;26418;50.070;8.436;2023-07-13T11:38:38;100059.34;;;28.18;26.76
40730;BME280;26418;50.070;8.436;2023-07-13T11:41:15;100052.84;;;28.29;26.73
40730;BME280;26418;50.070;8.436;2023-07-13T11:43:41;100048.84;;;28.84;26.36
40730;BME280;26418;50.070;8.436;2023-07-13T11:46:25;100046.81;;;28.61;26.34
40730;BME280;26418;50.070;8.436;2023-07-13T11:48:52;100045.66;;;29.30;26.05
40730;BME280;26418;50.070;8.436;2023-07-13T11:51:32;100040.66;;;29.65;25.25
40730;BME280;26418;50.070;8.436;2023-07-13T11:54:03;100047.44;;;30.21;24.78
40730;BME280;26418;50.070;8.436;2023-07-13T11:56:30;100041.06;;;30.57;24.49
40730;BME280;26418;50.070;8.436;2023-07-13T11:58:59;100045.09;;;30.72;24.07
40730;BME280;26418;50.070;8.436;2023-07-13T12:01:31;100033.63;;;30.83;24.02
40730;BME280;26418;50.070;8.436;2023-07-13T12:04:00;100045.13;;;30.36;23.60
40730;BME280;26418;50.070;8.436;2023-07-13T12:06:27;100048.91;;;30.62;23.53
40730;BME280;26418;50.070;8.436;2023-07-13T12:08:56;100049.28;;;29.51;23.76
40730;BME280;26418;50.070;8.436;2023-07-13T12:11:22;100029.31;;;28.61;24.83
40730;BME280;26418;50.070;8.436;2023-07-13T12:13:48;100048.69;;;28.95;25.43
40730;BME280;26418;50.070;8.436;2023-07-13T12:16:18;100055.84;;;29.80;25.93
40730;BME280;26418;50.070;8.436;2023-07-13T12:18:48;100048.81;;;30.13;23.79
40730;BME280;26418;50.070;8.436;2023-07-13T12:21:19;100044.94;;;30.26;24.19
40730;BME280;26418;50.070;8.436;2023-07-13T12:23:48;100045.63;;;29.74;24.24
40730;BME280;26418;50.070;8.436;2023-07-13T12:26:14;100053.69;;;29.68;24.86
40730;BME280;26418;50.070;8.436;2023-07-13T12:28:46;100048.63;;;30.03;24.58
40730;BME280;26418;50.070;8.436;2023-07-13T12:31:37;100056.50;;;29.88;24.67
40730;BME280;26418;50.070;8.436;2023-07-13T12:34:11;100059.00;;;29.18;25.43
40730;BME280;26418;50.070;8.436;2023-07-13T12:36:40;100084.34;;;28.49;25.96
40730;BME280;26418;50.070;8.436;2023-07-13T12:39:33;100059.44;;;28.11;26.22
40730;BME280;26418;50.070;8.436;2023-07-13T12:44:43;100066.97;;;28.14;26.91
40730;BME280;26418;50.070;8.436;2023-07-13T12:47:12;100077.66;;;28.43;26.93
40730;BME280;26418;50.070;8.436;2023-07-13T12:49:47;100067.19;;;28.82;26.88
40730;BME280;26418;50.070;8.436;2023-07-13T12:52:16;100071.78;;;29.40;26.15
40730;BME280;26418;50.070;8.436;2023-07-13T12:54:53;100072.69;;;29.09;25.39
40730;BME280;26418;50.070;8.436;2023-07-13T12:57:22;100074.75;;;28.81;26.25
40730;BME280;26418;50.070;8.436;2023-07-13T12:59:52;100089.38;;;28.58;26.76
40730;BME280;26418;50.070;8.436;2023-07-13T13:02:38;100084.72;;;28.51;26.96
40730;BME280;26418;50.070;8.436;2023-07-13T13:05:04;100087.16;;;27.84;27.22
40730;BME280;26418;50.070;8.436;2023-07-13T13:07:30;100078.44;;;27.47;27.75
40730;BME280;26418;50.070;8.436;2023-07-13T13:09:56;100091.88;;;27.52;28.04
40730;BME280;26418;50.070;8.436;2023-07-13T13:12:22;100081.59;;;27.49;28.21
40730;BME280;26418;50.070;8.436;2023-07-13T13:14:49;100082.84;;;27.79;28.18
40730;BME280;26418;50.070;8.436;2023-07-13T13:17:29;100091.81;;;27.94;27.71
40730;BME280;26418;50.070;8.436;2023-07-13T13:19:56;100093.84;;;27.55;28.43
40730;BME280;26418;50.070;8.436;2023-07-13T13:22:22;100086.25;;;27.18;29.12
40730;BME280;26418;50.070;8.436;2023-07-13T13:24:49;100084.63;;;27.20;29.30
40730;BME280;26418;50.070;8.436;2023-07-13T13:27:21;100087.81;;;27.19;29.11
40730;BME280;26418;50.070;8.436;2023-07-13T13:29:49;100081.63;;;27.42;29.21
40730;BME280;26418;50.070;8.436;2023-07-13T13:32:16;100092.91;;;27.24;28.85
40730;BME280;26418;50.070;8.436;2023-07-13T13:34:42;100105.16;;;26.85;29.41
40730;BME280;26418;50.070;8.436;2023-07-13T13:37:21;100099.69;;;26.66;29.64
40730;BME280;26418;50.070;8.436;2023-07-13T13:39:48;100092.75;;;26.36;29.88
40730;BME280;26418;50.070;8.436;2023-07-13T13:42:14;100095.25;;;26.13;29.91
40730;BME280;26418;50.070;8.436;2023-07-13T13:44:39;100086.94;;;26.09;30.17
40730;BME280;26418;50.070;8.436;2023-07-13T13:47:29;100093.19;;;26.24;30.52
40730;BME280;26418;50.070;8.436;2023-07-13T13:49:55;100101.16;;;26.18;30.21
40730;BME280;26418;50.070;8.436;2023-07-13T13:52:21;100091.69;;;26.09;30.17
40730;BME280;26418;50.070;8.436;2023-07-13T13:54:47;100101.41;;;26.46;30.27
40730;BME280;26418;50.070;8.436;2023-07-13T13:57:14;100094.56;;;26.61;29.95
40730;BME280;26418;50.070;8.436;2023-07-13T13:59:39;100094.84;;;26.81;30.06
40730;BME280;26418;50.070;8.436;2023-07-13T14:02:22;100098.69;;;26.95;29.35
40730;BME280;26418;50.070;8.436;2023-07-13T14:04:56;100106.63;;;26.96;29.19
40730;BME280;26418;50.070;8.436;2023-07-13T14:07:22;100107.84;;;26.95;29.26
40730;BME280;26418;50.070;8.436;2023-07-13T14:09:47;100101.13;;;26.93;29.50